Terminal Aerodrome Forecast
Issued by NWS

Current Version | Previous Version | Text Only | Print | Product List | Glossary On
Versions: 1 2 3 4 5 6 7 8 9 10 11 12
000
FTUS42 KGSP 041735
TAFGMU
TAF
KGMU 041735Z 0418/0518 07006KT 3SM -RA BR BKN007 OVC015
     FM042100 05006KT 2SM -RA BR OVC003
     FM050700 02003KT 2SM BR OVC003 PROB30 0507/0513 3/4SM -RA BR
      OVC003
     FM051400 03003KT P6SM SCT003 OVC008
     FM051600 04003KT P6SM VCSH SCT008 OVC015=

USA.gov is the U.S. government's official web portal to all federal, state and local government web resources and services.